Time;durP1;ratioP1;P1;durP2;ratioP2;P2;SDS_P1;SDS_P2;PMS_P1;PMS_P2;Temp;Humidity;BMP_temperature;BMP_pressure;BME280_temperature;BME280_humidity;BME280_pressure;Samples;Min_cycle;Max_cycle;Signal;HPM_P1;HPM_P2
2022/12/11 00:03:49;;;;;;;19.93;17.10;;;4.40;45.90;;;;;;10268089;28;20708;-71
2022/12/11 00:08:53;;;;;;;21.63;18.83;;;4.30;45.80;;;;;;10263692;28;20232;-70
2022/12/11 00:13:56;;;;;;;19.83;17.43;;;4.30;45.80;;;;;;10268740;28;20683;-70
2022/12/11 00:19:01;;;;;;;21.07;18.83;;;4.30;45.80;;;;;;10263350;28;20658;-70
2022/12/11 00:24:04;;;;;;;21.10;17.80;;;4.40;46.00;;;;;;10267811;28;20219;-70
2022/12/11 00:29:09;;;;;;;20.63;17.80;;;4.30;46.00;;;;;;10266035;28;20247;-71
2022/12/11 00:34:14;;;;;;;19.20;16.97;;;4.40;45.90;;;;;;10266878;28;20232;-71
2022/12/11 00:39:17;;;;;;;19.37;17.13;;;4.40;46.00;;;;;;10263802;28;20232;-71
2022/12/11 00:44:20;;;;;;;19.50;16.93;;;4.60;46.10;;;;;;10263239;28;20224;-71
2022/12/11 00:49:25;;;;;;;19.40;16.90;;;4.60;46.00;;;;;;10267019;28;20244;-71
2022/12/11 00:54:28;;;;;;;20.67;16.93;;;4.50;45.90;;;;;;10263593;28;20577;-71
2022/12/11 00:59:31;;;;;;;18.73;16.73;;;4.50;45.60;;;;;;10259589;28;20239;-71
2022/12/11 01:04:36;;;;;;;20.07;17.37;;;4.60;45.80;;;;;;10262666;28;20227;-71
2022/12/11 01:15:10;;;;;;;18.37;15.90;;;4.60;46.10;;;;;;10254205;28;20302;-70
2022/12/11 01:20:16;;;;;;;13.33;11.93;;;4.50;45.30;;;;;;10261962;28;20255;-71
2022/12/11 01:25:19;;;;;;;12.63;11.33;;;4.50;44.60;;;;;;10264432;28;20223;-71
2022/12/11 01:30:25;;;;;;;14.83;13.13;;;4.40;44.90;;;;;;10266182;28;20235;-71
2022/12/11 01:35:29;;;;;;;12.40;10.87;;;4.40;45.00;;;;;;10260404;28;20240;-70
2022/12/11 01:40:32;;;;;;;13.47;11.90;;;4.30;44.80;;;;;;10267170;28;20302;-71
2022/12/11 01:45:39;;;;;;;12.00;10.80;;;4.50;44.90;;;;;;10271718;28;20669;-70
2022/12/11 01:50:48;;;;;;;12.33;11.03;;;4.30;44.80;;;;;;10258949;28;20401;-71
2022/12/11 01:55:54;;;;;;;12.73;11.30;;;4.30;45.20;;;;;;10263093;28;20825;-71
2022/12/11 02:00:59;;;;;;;14.93;13.30;;;4.30;45.40;;;;;;10266449;28;20290;-71
2022/12/11 02:06:04;;;;;;;16.57;14.10;;;4.30;45.30;;;;;;10261511;28;20245;-70
2022/12/11 02:11:13;;;;;;;16.67;14.17;;;4.40;46.00;;;;;;10266194;28;20242;-71
2022/12/11 02:16:23;;;;;;;16.43;14.50;;;4.40;45.20;;;;;;10264981;28;20602;-71
2022/12/11 02:21:34;;;;;;;18.00;14.97;;;4.40;45.30;;;;;;10264203;28;20252;-71
2022/12/11 02:26:56;;;;;;;15.37;13.73;;;4.30;45.10;;;;;;10262223;28;20282;-71
2022/12/11 02:32:05;;;;;;;15.23;13.20;;;4.30;44.80;;;;;;10266076;28;20231;-71
2022/12/11 02:37:15;;;;;;;15.50;13.73;;;4.10;44.50;;;;;;10266801;28;20223;-71
2022/12/11 02:42:19;;;;;;;15.53;13.93;;;4.10;44.50;;;;;;10265370;28;20619;-71
2022/12/11 02:47:27;;;;;;;15.20;13.60;;;3.90;44.40;;;;;;10268437;28;20278;-71
2022/12/11 02:52:32;;;;;;;14.60;13.03;;;3.80;44.40;;;;;;10278639;28;21031;-71
2022/12/11 02:57:42;;;;;;;13.77;12.37;;;3.70;44.50;;;;;;10273582;28;20227;-70
2022/12/11 03:02:46;;;;;;;13.20;11.80;;;3.70;44.60;;;;;;10272601;28;20232;-71
2022/12/11 03:07:50;;;;;;;13.37;11.97;;;3.60;44.70;;;;;;10268894;28;20224;-70
2022/12/11 03:12:57;;;;;;;11.67;10.57;;;3.60;44.60;;;;;;10278754;28;20231;-70
2022/12/11 03:18:14;;;;;;;11.37;10.17;;;3.60;44.50;;;;;;10271232;28;20651;-70
2022/12/11 03:23:24;;;;;;;12.10;10.90;;;3.60;44.20;;;;;;10271682;28;20259;-70
2022/12/11 03:28:31;;;;;;;12.43;10.73;;;3.60;44.00;;;;;;10270384;28;20236;-70
2022/12/11 03:33:39;;;;;;;12.60;11.27;;;3.50;43.70;;;;;;10270236;28;20223;-72
2022/12/11 03:38:49;;;;;;;11.37;10.23;;;3.50;43.70;;;;;;10269421;28;20801;-72
2022/12/11 03:43:56;;;;;;;11.13;10.03;;;3.40;43.90;;;;;;10268121;28;20232;-72
2022/12/11 03:49:05;;;;;;;11.30;10.20;;;3.50;44.80;;;;;;10271136;28;20641;-72
2022/12/11 03:54:08;;;;;;;12.10;10.73;;;3.50;44.00;;;;;;10272306;28;20224;-72
2022/12/11 03:59:12;;;;;;;12.33;11.13;;;3.40;44.00;;;;;;10266792;28;20228;-72
2022/12/11 04:04:16;;;;;;;11.70;10.50;;;3.40;43.90;;;;;;10266641;28;20298;-72
2022/12/11 04:09:19;;;;;;;11.20;10.10;;;3.50;43.80;;;;;;10276759;28;20228;-72
2022/12/11 04:25:07;;;;;;;8.93;8.13;;;3.60;44.20;;;;;;10267092;28;20622;-71
2022/12/11 04:30:14;;;;;;;9.27;8.37;;;3.60;43.80;;;;;;10269565;28;20231;-71
2022/12/11 04:35:19;;;;;;;9.70;8.70;;;3.60;43.60;;;;;;10262651;28;20279;-71
2022/12/11 04:40:23;;;;;;;10.43;9.33;;;3.60;43.60;;;;;;10275441;28;20278;-71
2022/12/11 04:45:26;;;;;;;10.43;9.33;;;3.60;43.70;;;;;;10268937;28;20381;-71
2022/12/11 04:50:30;;;;;;;10.60;9.47;;;3.60;43.50;;;;;;10266017;28;20239;-71
2022/12/11 04:55:33;;;;;;;11.03;9.93;;;3.60;43.60;;;;;;10265257;28;20274;-71
2022/12/11 05:00:36;;;;;;;10.70;9.67;;;3.40;43.60;;;;;;10262410;28;20247;-71
2022/12/11 05:05:41;;;;;;;12.13;10.83;;;3.40;43.30;;;;;;10265357;28;20223;-71
2022/12/11 05:10:44;;;;;;;9.87;8.87;;;3.40;43.20;;;;;;10266651;28;20223;-71
2022/12/11 05:15:52;;;;;;;9.47;8.50;;;3.50;43.30;;;;;;10270926;28;20247;-71
2022/12/11 05:20:58;;;;;;;11.23;9.30;;;3.30;43.10;;;;;;10264742;28;20728;-71
2022/12/11 05:26:03;;;;;;;11.43;10.20;;;3.30;42.90;;;;;;10269707;28;20227;-71
2022/12/11 05:31:09;;;;;;;11.97;9.47;;;3.20;43.00;;;;;;10267763;28;20695;-70
2022/12/11 05:36:17;;;;;;;11.73;10.53;;;3.10;43.00;;;;;;10266912;28;20224;-70
2022/12/11 05:41:22;;;;;;;17.57;13.53;;;3.10;43.10;;;;;;10261796;28;20232;-71
2022/12/11 05:46:27;;;;;;;11.57;10.37;;;3.10;43.40;;;;;;10268677;28;20250;-71
2022/12/11 05:51:34;;;;;;;10.90;9.80;;;3.10;43.60;;;;;;10268665;28;20873;-71
2022/12/11 05:56:37;;;;;;;9.93;8.97;;;3.00;43.30;;;;;;10275654;28;20231;-71
2022/12/11 06:01:42;;;;;;;11.77;10.57;;;2.90;44.30;;;;;;10262168;28;20274;-71
2022/12/11 06:06:47;;;;;;;12.37;11.13;;;2.90;43.80;;;;;;10271917;28;20223;-71
2022/12/11 06:11:50;;;;;;;13.60;12.17;;;2.90;43.90;;;;;;10274671;28;21021;-71
2022/12/11 06:16:53;;;;;;;12.93;11.63;;;3.00;44.00;;;;;;10278321;28;20225;-71
2022/12/11 06:21:58;;;;;;;14.23;12.73;;;3.20;44.00;;;;;;10282251;28;20230;-71
2022/12/11 06:27:01;;;;;;;14.43;12.93;;;3.10;43.80;;;;;;10295807;28;20226;-71
2022/12/11 06:32:04;;;;;;;14.10;12.60;;;3.10;43.70;;;;;;10277469;28;20720;-70
2022/12/11 06:37:09;;;;;;;12.57;11.27;;;3.20;43.40;;;;;;10283692;28;20230;-70
2022/12/11 06:42:12;;;;;;;11.33;10.23;;;3.20;43.10;;;;;;10274128;28;20220;-70
2022/12/11 06:47:15;;;;;;;13.43;11.40;;;3.20;43.30;;;;;;10281133;28;20815;-71
2022/12/11 06:52:20;;;;;;;10.70;9.60;;;3.20;43.30;;;;;;10272868;28;20228;-70
2022/12/11 06:57:24;;;;;;;18.20;14.70;;;3.30;43.20;;;;;;10278736;28;20262;-71
2022/12/11 07:02:27;;;;;;;13.50;12.10;;;3.10;43.10;;;;;;10280195;28;20235;-71
2022/12/11 07:07:31;;;;;;;11.83;10.20;;;3.30;43.20;;;;;;10284261;28;20925;-71
2022/12/11 07:12:35;;;;;;;17.97;15.30;;;3.10;42.90;;;;;;10279867;28;20234;-71
2022/12/11 07:17:38;;;;;;;23.00;20.50;;;3.10;43.00;;;;;;10266927;28;20224;-71
2022/12/11 07:22:42;;;;;;;19.73;16.17;;;3.00;43.50;;;;;;10276699;28;20711;-71
2022/12/11 07:27:48;;;;;;;23.40;17.70;;;3.00;42.90;;;;;;10285109;28;20224;-71
2022/12/11 07:32:52;;;;;;;19.27;16.73;;;3.00;43.00;;;;;;10291744;28;20223;-71
2022/12/11 07:37:57;;;;;;;28.47;23.60;;;3.00;43.10;;;;;;10278376;28;20242;-68
2022/12/11 07:43:00;;;;;;;22.33;19.93;;;3.00;42.90;;;;;;10275889;28;20751;-69
2022/12/11 07:48:03;;;;;;;20.93;17.90;;;3.00;42.60;;;;;;10264615;28;20260;-69
2022/12/11 07:53:07;;;;;;;20.03;17.43;;;2.80;42.40;;;;;;10272594;28;20291;-69
2022/12/11 07:58:11;;;;;;;14.73;13.13;;;2.80;42.60;;;;;;10279415;28;20226;-69
2022/12/11 08:03:14;;;;;;;12.87;11.50;;;2.60;42.70;;;;;;10262190;28;20317;-69
2022/12/11 08:08:19;;;;;;;14.00;11.93;;;2.50;42.90;;;;;;10279168;28;20232;-68
2022/12/11 08:13:22;;;;;;;15.00;11.77;;;2.50;43.30;;;;;;10266356;28;20224;-69
2022/12/11 08:18:25;;;;;;;21.47;17.03;;;2.50;43.60;;;;;;10275491;28;20934;-69
2022/12/11 08:23:30;;;;;;;19.90;17.77;;;2.60;43.70;;;;;;10270638;28;20616;-69
2022/12/11 08:28:34;;;;;;;23.53;19.07;;;2.60;43.60;;;;;;10267520;28;20279;-67
2022/12/11 08:33:38;;;;;;;20.20;17.97;;;2.60;43.90;;;;;;10275328;28;20594;-70
2022/12/11 08:38:42;;;;;;;19.80;17.60;;;2.70;45.00;;;;;;10269062;28;20299;-69
2022/12/11 08:43:47;;;;;;;19.93;17.70;;;2.70;44.80;;;;;;10263844;28;20696;-70
2022/12/11 08:48:50;;;;;;;21.70;17.97;;;2.80;44.80;;;;;;10268637;28;20671;-71
2022/12/11 08:53:57;;;;;;;28.13;18.87;;;2.90;45.20;;;;;;10268631;28;20225;-70
2022/12/11 08:59:01;;;;;;;34.80;28.20;;;3.00;45.10;;;;;;10249873;28;20283;-69
2022/12/11 09:04:04;;;;;;;26.03;23.23;;;3.10;44.80;;;;;;10265805;28;20278;-71
2022/12/11 09:09:09;;;;;;;24.87;21.07;;;3.20;44.50;;;;;;10252615;28;20708;-69
2022/12/11 09:14:12;;;;;;;19.67;17.50;;;3.10;44.40;;;;;;10257887;28;20224;-69
2022/12/11 09:19:16;;;;;;;18.40;16.40;;;3.10;44.70;;;;;;10254830;28;20236;-69
2022/12/11 09:24:21;;;;;;;18.83;15.77;;;3.20;44.50;;;;;;10252065;28;20760;-70
2022/12/11 09:29:24;;;;;;;17.80;15.77;;;3.20;44.50;;;;;;10260155;28;20798;-69
2022/12/11 09:34:27;;;;;;;18.47;16.13;;;3.20;44.90;;;;;;10250535;28;20224;-69
2022/12/11 09:39:33;;;;;;;38.40;34.50;;;3.20;44.80;;;;;;10268398;28;20223;-69
2022/12/11 09:44:46;;;;;;;17.50;15.10;;;3.20;44.70;;;;;;10272850;28;20259;-69
2022/12/11 09:49:57;;;;;;;13.50;11.50;;;3.20;44.70;;;;;;10278561;28;20231;-70
2022/12/11 09:55:05;;;;;;;14.57;12.03;;;3.30;44.30;;;;;;10277881;28;20220;-70
2022/12/11 10:00:21;;;;;;;11.40;10.20;;;3.30;43.70;;;;;;10273820;28;20231;-69
2022/12/11 10:05:30;;;;;;;12.13;10.13;;;3.30;43.60;;;;;;10271566;28;20227;-69
2022/12/11 10:10:42;;;;;;;13.80;12.37;;;3.30;43.80;;;;;;10304085;23;20503;-69
2022/12/11 10:15:52;;;;;;;47.90;26.80;;;3.40;43.90;;;;;;10301641;28;20219;-69
2022/12/11 10:20:56;;;;;;;17.77;14.33;;;3.50;43.80;;;;;;10264036;28;20775;-68
2022/12/11 10:26:07;;;;;;;437.17;219.97;;;3.50;43.80;;;;;;10263228;28;20224;-72
2022/12/11 10:31:17;;;;;;;50.67;22.87;;;3.60;43.60;;;;;;10261960;28;20247;-70
2022/12/11 10:36:27;;;;;;;21.10;15.07;;;3.60;43.20;;;;;;10269058;28;20231;-70
2022/12/11 10:41:38;;;;;;;70.73;44.90;;;3.60;42.80;;;;;;10262678;28;20227;-70
2022/12/11 10:46:42;;;;;;;14.30;11.70;;;3.70;43.20;;;;;;10240626;28;20220;-70
2022/12/11 10:51:45;;;;;;;13.27;10.93;;;3.70;43.10;;;;;;10271236;28;20306;-70
2022/12/11 10:56:50;;;;;;;13.40;12.00;;;3.70;43.00;;;;;;10275374;28;20223;-70
2022/12/11 11:01:54;;;;;;;20.20;15.07;;;3.70;43.10;;;;;;10266289;28;20244;-70
2022/12/11 11:07:11;;;;;;;13.47;11.60;;;3.70;43.30;;;;;;10267003;28;20311;-70
2022/12/11 11:12:21;;;;;;;12.40;11.10;;;3.80;42.60;;;;;;10266043;28;20309;-69
2022/12/11 11:17:24;;;;;;;9.87;8.87;;;3.80;42.00;;;;;;10276204;28;20307;-69
2022/12/11 11:22:38;;;;;;;58.97;10.90;;;4.10;43.20;;;;;;10284270;28;20235;-70
2022/12/11 11:27:48;;;;;;;10.83;9.73;;;4.00;42.50;;;;;;10274752;28;20734;-67
2022/12/11 11:32:54;;;;;;;11.53;10.33;;;4.00;42.40;;;;;;10267098;28;20224;-67
2022/12/11 11:38:05;;;;;;;11.93;10.73;;;4.00;42.20;;;;;;10269432;28;20234;-67
2022/12/11 11:43:18;;;;;;;12.70;9.83;;;4.00;41.90;;;;;;10269064;28;20291;-67
2022/12/11 11:48:35;;;;;;;10.60;9.40;;;3.90;42.40;;;;;;10266715;28;20239;-67
2022/12/11 11:53:40;;;;;;;11.73;9.83;;;4.00;42.20;;;;;;10273809;28;20230;-68
2022/12/11 11:58:54;;;;;;;11.70;10.50;;;3.80;42.80;;;;;;10269648;28;20584;-67
2022/12/11 12:03:58;;;;;;;11.70;10.50;;;3.80;44.00;;;;;;10260433;28;20246;-67
2022/12/11 12:09:14;;;;;;;9.93;8.93;;;3.80;43.40;;;;;;10263769;28;20231;-67
2022/12/11 12:14:24;;;;;;;11.67;10.47;;;3.90;43.30;;;;;;10265051;28;20298;-67
2022/12/11 12:20:03;;;;;;;10.93;9.53;;;4.00;43.30;;;;;;10263281;28;20406;-67
2022/12/11 12:25:18;;;;;;;10.00;9.00;;;4.10;43.30;;;;;;10267496;28;20231;-67
2022/12/11 12:30:23;;;;;;;11.10;10.00;;;4.00;43.00;;;;;;10253684;28;20243;-67
2022/12/11 12:35:35;;;;;;;12.37;10.77;;;4.00;43.30;;;;;;10268190;28;20230;-67
2022/12/11 12:40:48;;;;;;;10.87;9.77;;;4.00;43.70;;;;;;10270538;28;20228;-68
2022/12/11 12:46:02;;;;;;;10.87;9.77;;;4.10;44.10;;;;;;10265333;28;20251;-67
2022/12/11 12:51:06;;;;;;;10.30;9.30;;;4.10;44.10;;;;;;10263871;28;20234;-67
2022/12/11 12:56:11;;;;;;;10.87;9.63;;;4.10;43.80;;;;;;10270909;28;20235;-67
2022/12/11 13:01:20;;;;;;;5.27;4.77;;;4.10;43.80;;;;;;10268588;28;20239;-67
2022/12/11 13:06:33;;;;;;;4.17;3.77;;;4.20;42.60;;;;;;10263862;28;20246;-67
2022/12/11 13:11:36;;;;;;;3.77;3.47;;;4.20;41.20;;;;;;10275952;28;20227;-67
2022/12/11 13:16:42;;;;;;;4.40;3.47;;;4.10;42.00;;;;;;10278399;28;20231;-67
2022/12/11 13:21:56;;;;;;;3.93;3.57;;;4.10;41.60;;;;;;10282418;28;20255;-67
2022/12/11 13:27:10;;;;;;;4.37;3.97;;;3.90;40.60;;;;;;10260905;28;20232;-67
2022/12/11 13:32:24;;;;;;;5.00;4.50;;;3.90;41.70;;;;;;10272956;28;20228;-68
2022/12/11 13:37:31;;;;;;;4.83;3.90;;;3.90;41.80;;;;;;10265643;28;20295;-70
2022/12/11 13:42:42;;;;;;;5.67;5.17;;;3.80;43.60;;;;;;10266370;28;20238;-67
2022/12/11 13:47:47;;;;;;;5.57;5.03;;;3.90;43.40;;;;;;10263697;28;20261;-67
2022/12/11 13:52:54;;;;;;;4.97;4.50;;;4.00;43.40;;;;;;10267493;28;20246;-68
2022/12/11 13:57:58;;;;;;;7.10;6.40;;;4.10;43.40;;;;;;10279310;28;20239;-68
2022/12/11 14:03:07;;;;;;;7.73;7.00;;;4.10;43.30;;;;;;10277817;28;20222;-67
2022/12/11 14:08:12;;;;;;;7.33;6.63;;;4.20;43.10;;;;;;10273817;28;20957;-68
2022/12/11 14:13:21;;;;;;;9.43;7.40;;;4.20;43.20;;;;;;10267680;28;20771;-68
2022/12/11 14:18:29;;;;;;;11.37;9.90;;;4.30;43.50;;;;;;10260011;28;20246;-67
2022/12/11 14:23:34;;;;;;;9.57;8.67;;;4.30;43.30;;;;;;10256882;28;20723;-67
2022/12/11 14:28:41;;;;;;;12.53;11.23;;;4.30;43.20;;;;;;10274810;28;20239;-67
2022/12/11 14:33:50;;;;;;;10.27;9.17;;;4.30;43.20;;;;;;10262102;28;20228;-67
2022/12/11 14:38:57;;;;;;;8.50;7.70;;;4.40;43.30;;;;;;10268354;28;20232;-67
2022/12/11 14:44:03;;;;;;;9.73;8.77;;;4.40;43.50;;;;;;10276413;28;20901;-67
2022/12/11 14:49:17;;;;;;;9.40;7.87;;;4.40;43.30;;;;;;10273195;28;20239;-68
2022/12/11 14:54:27;;;;;;;10.00;9.03;;;4.40;43.00;;;;;;10267982;28;20223;-67
2022/12/11 14:59:34;;;;;;;8.83;7.93;;;4.40;42.90;;;;;;10273088;28;20652;-67
2022/12/11 15:04:38;;;;;;;7.97;7.17;;;4.40;42.70;;;;;;10260489;28;20243;-67
2022/12/11 15:09:42;;;;;;;7.80;7.10;;;4.30;42.20;;;;;;10274421;28;20234;-67
2022/12/11 15:14:49;;;;;;;7.27;6.57;;;4.20;42.10;;;;;;10263671;28;20572;-68
2022/12/11 15:20:00;;;;;;;8.13;7.33;;;4.10;42.00;;;;;;10267829;28;20736;-67
2022/12/11 15:25:04;;;;;;;10.87;8.40;;;4.00;41.90;;;;;;10278060;28;20707;-73
2022/12/11 15:30:27;;;;;;;10.10;8.13;;;3.90;43.00;;;;;;10274690;28;20233;-69
2022/12/11 15:35:31;;;;;;;9.13;7.37;;;3.90;42.90;;;;;;10274197;28;20727;-69
2022/12/11 15:40:35;;;;;;;7.83;7.03;;;4.10;43.60;;;;;;10264818;28;20632;-68
2022/12/11 15:45:38;;;;;;;15.83;12.33;;;4.00;43.30;;;;;;10276545;28;20231;-69
2022/12/11 15:50:43;;;;;;;10.23;9.13;;;4.00;42.90;;;;;;10274381;28;20243;-69
2022/12/11 15:55:47;;;;;;;9.67;8.27;;;4.00;42.60;;;;;;10268444;28;20234;-69
2022/12/11 16:00:50;;;;;;;8.87;7.90;;;3.90;42.40;;;;;;10270560;28;20233;-69
2022/12/11 16:05:55;;;;;;;8.73;7.73;;;3.80;42.30;;;;;;10267238;28;20769;-69
2022/12/11 16:10:58;;;;;;;7.80;7.03;;;3.60;42.50;;;;;;10257291;28;20240;-69
2022/12/11 16:16:01;;;;;;;9.67;8.67;;;3.40;42.70;;;;;;10268936;28;20257;-69
2022/12/11 16:21:06;;;;;;;7.20;6.47;;;3.20;43.00;;;;;;10259040;28;20236;-69
2022/12/11 16:26:10;;;;;;;7.50;6.73;;;3.20;43.30;;;;;;10260579;28;20224;-70
2022/12/11 16:31:15;;;;;;;7.97;7.17;;;3.10;43.30;;;;;;10268241;28;20231;-69
2022/12/11 16:36:20;;;;;;;8.33;7.43;;;3.30;43.80;;;;;;10276630;28;20219;-70
2022/12/11 16:41:24;;;;;;;8.70;7.80;;;3.20;43.60;;;;;;10280319;28;20243;-68
2022/12/11 16:46:27;;;;;;;8.17;7.23;;;3.20;43.60;;;;;;10280890;28;20246;-68
2022/12/11 16:51:31;;;;;;;8.67;7.77;;;3.30;43.70;;;;;;10281454;28;20266;-68
2022/12/11 16:56:35;;;;;;;8.60;7.70;;;3.30;43.70;;;;;;10271264;28;20250;-68
2022/12/11 17:01:38;;;;;;;9.80;8.80;;;3.40;43.80;;;;;;10260184;28;20229;-69
2022/12/11 17:06:42;;;;;;;9.70;8.70;;;3.40;43.70;;;;;;10265957;28;20723;-68
2022/12/11 17:11:46;;;;;;;13.30;10.87;;;3.40;43.60;;;;;;10265839;28;20275;-68
2022/12/11 17:16:49;;;;;;;10.63;8.97;;;3.50;43.60;;;;;;10266164;28;20232;-68
2022/12/11 17:21:54;;;;;;;10.13;9.07;;;3.50;43.50;;;;;;10332595;23;20225;-71
2022/12/11 17:26:58;;;;;;;11.80;9.57;;;3.50;43.40;;;;;;10356822;28;20222;-71
2022/12/11 17:32:02;;;;;;;10.17;8.97;;;3.40;43.40;;;;;;10357120;28;20234;-72
2022/12/11 17:37:06;;;;;;;10.63;9.50;;;3.40;43.40;;;;;;10359190;28;20218;-71
2022/12/11 17:42:10;;;;;;;10.30;9.07;;;3.40;43.30;;;;;;10357830;28;20226;-72
2022/12/11 17:47:13;;;;;;;11.43;10.23;;;3.40;43.20;;;;;;10360619;28;20226;-72
2022/12/11 17:52:17;;;;;;;11.53;10.10;;;3.40;43.20;;;;;;10358471;28;20226;-73
2022/12/11 17:57:21;;;;;;;11.23;9.60;;;3.40;43.00;;;;;;10357156;28;20230;-74
2022/12/11 18:02:24;;;;;;;11.13;9.93;;;3.20;42.90;;;;;;10358067;28;20245;-73
2022/12/11 18:07:29;;;;;;;11.90;10.37;;;3.20;42.90;;;;;;10358560;28;20230;-73
2022/12/11 18:12:32;;;;;;;13.60;11.93;;;3.20;42.90;;;;;;10358950;28;20238;-73
2022/12/11 18:17:35;;;;;;;12.77;10.43;;;3.10;43.00;;;;;;10360242;28;20222;-73
2022/12/11 18:22:39;;;;;;;11.60;10.40;;;3.10;42.90;;;;;;10360913;28;20249;-73
2022/12/11 18:27:43;;;;;;;13.33;10.83;;;3.20;43.30;;;;;;10357604;28;20226;-73
2022/12/11 18:32:47;;;;;;;12.40;10.97;;;3.10;43.20;;;;;;10355904;28;20226;-73
2022/12/11 18:37:52;;;;;;;11.53;10.30;;;3.10;42.90;;;;;;10355988;28;20800;-72
2022/12/11 18:42:55;;;;;;;14.40;11.70;;;3.00;42.60;;;;;;10359614;28;20253;-73
2022/12/11 18:47:59;;;;;;;17.13;13.30;;;3.00;42.60;;;;;;10354870;28;20222;-73
2022/12/11 18:53:04;;;;;;;12.60;10.93;;;2.90;42.60;;;;;;10356533;28;20265;-71
2022/12/11 18:58:07;;;;;;;12.30;10.67;;;2.90;42.80;;;;;;10356993;28;20222;-72
2022/12/11 19:03:12;;;;;;;13.03;11.67;;;3.00;43.10;;;;;;10357746;28;20226;-72
2022/12/11 19:08:17;;;;;;;11.40;10.20;;;3.10;43.20;;;;;;10352555;28;20226;-72
2022/12/11 19:13:20;;;;;;;12.67;11.27;;;3.00;42.90;;;;;;10356370;28;20227;-73
2022/12/11 19:18:23;;;;;;;25.97;18.77;;;3.00;43.10;;;;;;10349003;28;20987;-73
2022/12/11 19:23:28;;;;;;;17.93;13.40;;;3.00;43.10;;;;;;10351006;28;20242;-73
2022/12/11 19:28:32;;;;;;;12.87;11.07;;;3.10;43.00;;;;;;10357943;28;20234;-73
2022/12/11 19:33:36;;;;;;;15.53;11.87;;;3.10;43.80;;;;;;10359438;28;20231;-73
2022/12/11 19:38:42;;;;;;;20.87;16.43;;;3.30;43.30;;;;;;10359710;28;20218;-73
2022/12/11 19:43:45;;;;;;;17.33;13.43;;;3.20;43.10;;;;;;10358227;28;20226;-73
2022/12/11 19:48:49;;;;;;;19.50;15.83;;;3.20;43.20;;;;;;10359395;28;20222;-73
2022/12/11 19:53:54;;;;;;;19.00;16.43;;;3.20;43.20;;;;;;10356238;28;20714;-72
2022/12/11 19:58:59;;;;;;;18.67;14.83;;;3.20;43.00;;;;;;10360064;28;20234;-72
2022/12/11 20:04:05;;;;;;;16.70;13.87;;;3.30;43.20;;;;;;10361024;28;20222;-72
2022/12/11 20:09:10;;;;;;;16.70;13.43;;;3.30;43.00;;;;;;10361504;28;20237;-72
2022/12/11 20:14:20;;;;;;;15.60;13.43;;;3.30;43.00;;;;;;10364189;28;20222;-73
2022/12/11 20:19:24;;;;;;;17.33;13.43;;;3.30;42.90;;;;;;10362669;28;20241;-72
2022/12/11 20:24:29;;;;;;;15.17;13.40;;;3.30;43.10;;;;;;10362901;28;21940;-72
2022/12/11 20:29:32;;;;;;;13.17;11.80;;;3.40;43.10;;;;;;10359786;28;20905;-72
2022/12/11 20:34:35;;;;;;;12.73;11.43;;;3.40;43.10;;;;;;10356208;28;20641;-72
2022/12/11 20:39:40;;;;;;;14.43;12.03;;;3.40;43.10;;;;;;10355739;28;20234;-72
2022/12/11 20:44:44;;;;;;;13.07;11.60;;;3.40;42.70;;;;;;10357703;28;20313;-72
2022/12/11 20:49:52;;;;;;;13.83;12.23;;;3.40;42.70;;;;;;10356465;28;20237;-73
2022/12/11 20:54:56;;;;;;;13.43;11.70;;;3.40;42.60;;;;;;10354875;28;20222;-73
2022/12/11 21:00:00;;;;;;;13.13;10.97;;;3.40;42.60;;;;;;10357210;28;20226;-73
2022/12/11 21:05:03;;;;;;;14.50;11.23;;;3.30;42.50;;;;;;10361401;28;20227;-73
2022/12/11 21:10:09;;;;;;;12.17;10.43;;;3.30;42.30;;;;;;10358601;28;20234;-73
2022/12/11 21:15:12;;;;;;;13.83;11.53;;;3.20;42.20;;;;;;10356558;28;20222;-73
2022/12/11 21:20:16;;;;;;;15.87;12.93;;;3.20;42.40;;;;;;10360073;28;20226;-73
2022/12/11 21:25:21;;;;;;;14.63;13.10;;;3.20;42.60;;;;;;10358911;28;20296;-73
2022/12/11 21:30:24;;;;;;;15.33;13.07;;;3.20;42.60;;;;;;10355646;28;20237;-69
2022/12/11 21:35:27;;;;;;;14.00;11.90;;;3.20;42.80;;;;;;10360580;28;20229;-69
2022/12/11 21:40:32;;;;;;;16.93;14.30;;;3.10;43.00;;;;;;10355861;28;20312;-69
2022/12/11 21:45:36;;;;;;;29.27;23.97;;;3.10;43.00;;;;;;10357012;28;20233;-69
2022/12/11 21:51:06;;;;;;;21.87;17.87;;;3.10;42.90;;;;;;10354332;28;20309;-69
2022/12/11 21:56:13;;;;;;;18.73;14.40;;;3.20;42.90;;;;;;10354074;28;20276;-69
2022/12/11 22:01:18;;;;;;;16.43;14.40;;;3.20;43.10;;;;;;10357183;28;20241;-71
2022/12/11 22:06:22;;;;;;;16.67;13.87;;;3.20;43.20;;;;;;10353535;28;20607;-70
2022/12/11 22:11:30;;;;;;;20.73;16.93;;;3.20;43.50;;;;;;10352367;28;20230;-69
2022/12/11 22:16:34;;;;;;;18.50;15.57;;;3.30;43.10;;;;;;10355345;28;20592;-70
2022/12/11 22:21:37;;;;;;;19.30;15.63;;;3.30;43.00;;;;;;10354928;28;20276;-70
2022/12/11 22:26:42;;;;;;;20.07;15.77;;;3.30;42.70;;;;;;10356543;28;20237;-69
2022/12/11 22:31:45;;;;;;;19.00;15.27;;;3.40;42.90;;;;;;10355649;28;20237;-70
2022/12/11 22:36:48;;;;;;;17.60;15.10;;;3.20;42.80;;;;;;10358816;28;20222;-70
2022/12/11 22:41:53;;;;;;;15.07;13.00;;;3.20;43.00;;;;;;10355166;28;20222;-69
2022/12/11 22:46:56;;;;;;;15.83;13.77;;;3.10;42.70;;;;;;10353509;28;20241;-69
2022/12/11 22:51:59;;;;;;;15.77;13.37;;;3.20;42.90;;;;;;10355419;28;20284;-70
2022/12/11 22:57:03;;;;;;;16.47;13.93;;;3.10;42.70;;;;;;10352892;28;20471;-70
2022/12/11 23:02:07;;;;;;;15.70;12.80;;;3.10;42.60;;;;;;10356638;28;20238;-69
2022/12/11 23:07:10;;;;;;;14.07;12.57;;;3.10;42.60;;;;;;10364965;28;20230;-70
2022/12/11 23:12:14;;;;;;;18.03;13.93;;;2.90;42.60;;;;;;10365059;28;20223;-69
2022/12/11 23:17:18;;;;;;;12.73;11.30;;;2.90;42.50;;;;;;10363057;28;20222;-70
2022/12/11 23:22:21;;;;;;;14.63;11.47;;;2.90;42.30;;;;;;10357985;28;20227;-69
2022/12/11 23:27:25;;;;;;;15.93;11.80;;;2.80;42.30;;;;;;10360434;28;20525;-70
2022/12/11 23:32:29;;;;;;;12.60;10.80;;;2.80;42.30;;;;;;10362638;28;20234;-70
2022/12/11 23:37:32;;;;;;;12.97;11.30;;;2.70;42.50;;;;;;10363209;28;20223;-69
2022/12/11 23:42:36;;;;;;;13.40;11.07;;;2.70;42.40;;;;;;10364249;28;20233;-69
2022/12/11 23:47:39;;;;;;;12.80;11.43;;;2.70;42.30;;;;;;10363814;28;20222;-70
2022/12/11 23:52:43;;;;;;;14.67;11.60;;;2.60;42.30;;;;;;10363596;28;20233;-69
2022/12/11 23:57:47;;;;;;;13.40;11.10;;;2.50;42.30;;;;;;10363744;28;20234;-69
